PWSweather.com
Personal Weather Stations
Station Observations
MARICOPA
Cobblestone Farms, Maricopa, AZ 85139

Cobblestone FarmsMaricopa, AZ 85139

Lat: 33.076, Lon: -112.0445

Elevation: 1148

Station Type: LaCrosse 2310/15

http://weather.azkiwis.net

Latest ConditionsUpdated 8:00:17 AM MST Thursday, Sep 3, 2015
Currently Today's Max Today's Min Today's Average
Temperature 81.9°F27.7°C 84.4°F29.1°C 76.8°F24.9°C 80.2°F26.8°C
Dew Point 56.6°F13.7°C 56.7°F13.7°C 51.3°F10.7°C 53.5°F11.9°C
Winds Calm Calm 2.4 mph SSE3.9 kmh SSE - 0.5 mph 0.8 kmh
Wind Gusts -- 4.0 mph6.4 kmh - -
Humidity 42% 48% 32% 40%
Pressure 29.89 in1012.2 mb 29.89 in1012.2 mb 29.82 in1009.8 mb -
Hour Temp Dew Point Humidity Winds Wind Gusts Pressure Precip Precip Rate Daily Precip Total
08:00 AM 81.9°F27.7°C 56.6°F13.7°C 42% Calm Calm -- 29.89 in1012.2 mb - 0.00 in0.0 mm 0.00 in0.0 mm
07:45 AM 80.5°F26.9°C 56.0°F13.3°C 43% 0.5 mph SSE0.8 kmh SSE 2.0 mph3.2 kmh 29.89 in1012.2 mb - 0.00 in0.0 mm 0.00 in0.0 mm
07:30 AM 79.3°F26.3°C 56.7°F13.7°C 46% 1.9 mph S3.1 kmh S 3.4 mph5.5 kmh 29.89 in1012.2 mb - 0.00 in0.0 mm 0.00 in0.0 mm
07:15 AM 78.1°F25.6°C 56.2°F13.4°C 47% 0.9 mph S1.4 kmh S -- 29.88 in1011.9 mb - 0.00 in0.0 mm 0.00 in0.0 mm
07:00 AM 77.2°F25.1°C 56.0°F13.3°C 48% 2.4 mph SSE3.9 kmh SSE 4.0 mph6.4 kmh 29.87 in1011.5 mb - 0.00 in0.0 mm 0.00 in0.0 mm
06:45 AM 76.8°F24.9°C 55.1°F12.8°C 47% 1.6 mph SSE2.6 kmh SSE 2.2 mph3.5 kmh 29.87 in1011.5 mb - 0.00 in0.0 mm 0.00 in0.0 mm
06:30 AM 76.8°F24.9°C 53.9°F12.2°C 45% Calm Calm -- 29.87 in1011.5 mb - 0.00 in0.0 mm 0.00 in0.0 mm
06:15 AM 77.1°F25.1°C 53.5°F11.9°C 44% Calm Calm -- 29.87 in1011.5 mb - 0.00 in0.0 mm 0.00 in0.0 mm
06:00 AM 77.2°F25.1°C 52.3°F11.3°C 42% 1.1 mph SE1.8 kmh SE 2.5 mph4.0 kmh 29.86 in1011.2 mb - 0.00 in0.0 mm 0.00 in0.0 mm
05:45 AM 77.4°F25.2°C 51.8°F11.0°C 41% Calm Calm 0.7 mph1.1 kmh 29.86 in1011.2 mb - 0.00 in0.0 mm 0.00 in0.0 mm
05:30 AM 77.4°F25.2°C 51.8°F11.0°C 41% Calm Calm -- 29.86 in1011.2 mb - 0.00 in0.0 mm 0.00 in0.0 mm
05:15 AM 77.5°F25.3°C 52.0°F11.1°C 41% 0.1 mph SE0.2 kmh SE 1.3 mph2.1 kmh 29.84 in1010.5 mb - 0.00 in0.0 mm 0.00 in0.0 mm
05:00 AM 77.7°F25.4°C 52.1°F11.2°C 41% Calm Calm -- 29.85 in1010.8 mb - 0.00 in0.0 mm 0.00 in0.0 mm
04:45 AM 78.3°F25.7°C 52.6°F11.4°C 41% Calm Calm -- 29.84 in1010.5 mb - 0.00 in0.0 mm 0.00 in0.0 mm
04:30 AM 78.6°F25.9°C 52.3°F11.3°C 40% Calm Calm -- 29.84 in1010.5 mb - 0.00 in0.0 mm 0.00 in0.0 mm
04:15 AM 79.0°F26.1°C 52.6°F11.4°C 40% 0.1 mph SE0.2 kmh SE -- 29.84 in1010.5 mb - 0.00 in0.0 mm 0.00 in0.0 mm
04:00 AM 79.3°F26.3°C 52.9°F11.6°C 40% 1.4 mph SE2.3 kmh SE 2.5 mph4.0 kmh 29.84 in1010.5 mb - 0.00 in0.0 mm 0.00 in0.0 mm
03:45 AM 79.5°F26.4°C 53.1°F11.7°C 40% 1.7 mph SE2.7 kmh SE 1.1 mph1.8 kmh 29.84 in1010.5 mb - 0.00 in0.0 mm 0.00 in0.0 mm
03:30 AM 80.1°F26.7°C 54.2°F12.3°C 41% 0.7 mph SSE1.1 kmh SSE 1.6 mph2.6 kmh 29.84 in1010.5 mb - 0.00 in0.0 mm 0.00 in0.0 mm
03:15 AM 80.6°F27.0°C 54.7°F12.6°C 41% Calm Calm -- 29.84 in1010.5 mb - 0.00 in0.0 mm 0.00 in0.0 mm
03:00 AM 81.0°F27.2°C 53.7°F12.1°C 39% Calm Calm -- 29.83 in1010.2 mb - 0.00 in0.0 mm 0.00 in0.0 mm
02:45 AM 81.3°F27.4°C 54.0°F12.2°C 39% Calm Calm -- 29.83 in1010.2 mb - 0.00 in0.0 mm 0.00 in0.0 mm
02:30 AM 81.7°F27.6°C 53.6°F12.0°C 38% Calm Calm -- 29.83 in1010.2 mb - 0.00 in0.0 mm 0.00 in0.0 mm
02:15 AM 82.0°F27.8°C 53.9°F12.2°C 38% Calm Calm -- 29.82 in1009.8 mb - 0.00 in0.0 mm 0.00 in0.0 mm
02:00 AM 82.4°F28.0°C 55.0°F12.8°C 39% 0.7 mph SSE1.1 kmh SSE 0.9 mph1.4 kmh 29.82 in1009.8 mb - 0.00 in0.0 mm 0.00 in0.0 mm
01:45 AM 82.6°F28.1°C 53.7°F12.1°C 37% 1.3 mph SSE2.1 kmh SSE 1.6 mph2.6 kmh 29.82 in1009.8 mb - 0.00 in0.0 mm 0.00 in0.0 mm
01:30 AM 83.0°F28.3°C 54.0°F12.2°C 37% Calm Calm 2.7 mph4.3 kmh 29.83 in1010.2 mb - 0.00 in0.0 mm 0.00 in0.0 mm
01:15 AM 83.1°F28.4°C 53.4°F11.9°C 36% 1.6 mph SSE2.6 kmh SSE 2.7 mph4.3 kmh 29.84 in1010.5 mb - 0.00 in0.0 mm 0.00 in0.0 mm
01:00 AM 83.5°F28.6°C 52.2°F11.2°C 34% Calm Calm -- 29.83 in1010.2 mb - 0.00 in0.0 mm 0.00 in0.0 mm
12:45 AM 83.5°F28.6°C 52.2°F11.2°C 34% 0.7 mph S1.1 kmh S 1.3 mph2.1 kmh 29.84 in1010.5 mb - 0.00 in0.0 mm 0.00 in0.0 mm
12:30 AM 83.7°F28.7°C 51.5°F10.8°C 33% Calm Calm -- 29.84 in1010.5 mb - 0.00 in0.0 mm 0.00 in0.0 mm
12:15 AM 84.0°F28.9°C 51.8°F11.0°C 33% Calm Calm -- 29.84 in1010.5 mb - 0.00 in0.0 mm 0.00 in0.0 mm
12:00 AM 84.4°F29.1°C 51.3°F10.7°C 32% Calm Calm -- 29.84 in1010.5 mb - 0.00 in0.0 mm 0.00 in0.0 mm